sensor_id;sensor_type;location;lat;lon;timestamp;pressure;altitude;pressure_sealevel;temperature;humidity
68891;BME280;55932;48.702;8.884;2024-03-07T00:01:28;96590;;;5.2;71.5
68891;BME280;55932;48.702;8.884;2024-03-07T00:06:29;96580;;;5.2;71.5
68891;BME280;55932;48.702;8.884;2024-03-07T00:09:00;96580;;;5.2;71.5
68891;BME280;55932;48.702;8.884;2024-03-07T00:13:55;96580;;;5.2;71.5
68891;BME280;55932;48.702;8.884;2024-03-07T00:19:03;96590;;;5.3;71.5
68891;BME280;55932;48.702;8.884;2024-03-07T00:21:33;96580;;;5.2;71.5
68891;BME280;55932;48.702;8.884;2024-03-07T00:23:57;96580;;;5.2;71.5
68891;BME280;55932;48.702;8.884;2024-03-07T00:26:28;96580;;;5.2;71.5
68891;BME280;55932;48.702;8.884;2024-03-07T00:28:59;96590;;;5.2;71.5
68891;BME280;55932;48.702;8.884;2024-03-07T00:36:25;96590;;;5.1;72
68891;BME280;55932;48.702;8.884;2024-03-07T00:38:56;96580;;;5.2;71.5
68891;BME280;55932;48.702;8.884;2024-03-07T00:41:26;96580;;;5.1;71.5
68891;BME280;55932;48.702;8.884;2024-03-07T00:43:57;96580;;;5.1;71.5
68891;BME280;55932;48.702;8.884;2024-03-07T00:46:28;96580;;;5;71.5
68891;BME280;55932;48.702;8.884;2024-03-07T00:48:59;96580;;;5;71.5
68891;BME280;55932;48.702;8.884;2024-03-07T00:51:29;96580;;;5;71.5
68891;BME280;55932;48.702;8.884;2024-03-07T00:54:00;96590;;;5;71.5
68891;BME280;55932;48.702;8.884;2024-03-07T01:04:03;96580;;;4.9;71.5
68891;BME280;55932;48.702;8.884;2024-03-07T01:11:35;96570;;;4.8;71.5
68891;BME280;55932;48.702;8.884;2024-03-07T01:14:06;96580;;;4.7;72
68891;BME280;55932;48.702;8.884;2024-03-07T01:16:37;96570;;;4.6;72
68891;BME280;55932;48.702;8.884;2024-03-07T01:19:08;96570;;;4.6;72
68891;BME280;55932;48.702;8.884;2024-03-07T01:24:16;96570;;;4.5;72
68891;BME280;55932;48.702;8.884;2024-03-07T01:26:46;96570;;;4.4;72
68891;BME280;55932;48.702;8.884;2024-03-07T01:29:17;96560;;;4.5;72
68891;BME280;55932;48.702;8.884;2024-03-07T01:31:48;96560;;;4.5;72
68891;BME280;55932;48.702;8.884;2024-03-07T01:39:15;96560;;;4.5;71.5
68891;BME280;55932;48.702;8.884;2024-03-07T01:41:45;96560;;;4.5;71.5
68891;BME280;55932;48.702;8.884;2024-03-07T01:44:16;96550;;;4.5;71.5
68891;BME280;55932;48.702;8.884;2024-03-07T01:46:47;96550;;;4.4;72
68891;BME280;55932;48.702;8.884;2024-03-07T01:49:17;96540;;;4.4;71.5
68891;BME280;55932;48.702;8.884;2024-03-07T01:51:55;96540;;;4.4;72
68891;BME280;55932;48.702;8.884;2024-03-07T01:54:26;96550;;;4.4;72
68891;BME280;55932;48.702;8.884;2024-03-07T01:56:57;96540;;;4.4;72
68891;BME280;55932;48.702;8.884;2024-03-07T01:59:27;96540;;;4.4;72
68891;BME280;55932;48.702;8.884;2024-03-07T02:06:53;96530;;;4.3;72
68891;BME280;55932;48.702;8.884;2024-03-07T02:09:23;96540;;;4.1;72
68891;BME280;55932;48.702;8.884;2024-03-07T02:11:54;96530;;;4.1;72
68891;BME280;55932;48.702;8.884;2024-03-07T02:14:25;96540;;;4.1;72
68891;BME280;55932;48.702;8.884;2024-03-07T02:17:03;96530;;;4.1;72
68891;BME280;55932;48.702;8.884;2024-03-07T02:19:33;96530;;;4.1;72
68891;BME280;55932;48.702;8.884;2024-03-07T02:22:04;96520;;;4.2;72
68891;BME280;55932;48.702;8.884;2024-03-07T02:24:28;96520;;;4.1;72
68891;BME280;55932;48.702;8.884;2024-03-07T02:34:31;96520;;;3.4;72.5
68891;BME280;55932;48.702;8.884;2024-03-07T02:37:02;96520;;;3.2;72.5
68891;BME280;55932;48.702;8.884;2024-03-07T02:39:33;96510;;;3;72.5
68891;BME280;55932;48.702;8.884;2024-03-07T02:42:17;96510;;;2.7;73
68891;BME280;55932;48.702;8.884;2024-03-07T02:44:47;96520;;;2.5;73
68891;BME280;55932;48.702;8.884;2024-03-07T02:49:41;96520;;;2.2;73
68891;BME280;55932;48.702;8.884;2024-03-07T02:52:11;96520;;;2.1;73
68891;BME280;55932;48.702;8.884;2024-03-07T02:54:42;96510;;;2;73
68891;BME280;55932;48.702;8.884;2024-03-07T02:57:13;96520;;;2;73
68891;BME280;55932;48.702;8.884;2024-03-07T02:59:50;96510;;;1.9;73
68891;BME280;55932;48.702;8.884;2024-03-07T03:02:27;96510;;;1.8;73
68891;BME280;55932;48.702;8.884;2024-03-07T03:07:14;96500;;;1.7;73
68891;BME280;55932;48.702;8.884;2024-03-07T03:09:45;96500;;;1.6;73
68891;BME280;55932;48.702;8.884;2024-03-07T03:17:11;96500;;;1.4;73
68891;BME280;55932;48.702;8.884;2024-03-07T03:19:42;96500;;;1.4;73
68891;BME280;55932;48.702;8.884;2024-03-07T03:27:14;96500;;;1.5;73
68891;BME280;55932;48.702;8.884;2024-03-07T03:29:45;96500;;;1.6;72.5
68891;BME280;55932;48.702;8.884;2024-03-07T03:32:16;96490;;;1.6;72.5
68891;BME280;55932;48.702;8.884;2024-03-07T03:34:46;96500;;;1.6;72.5
68891;BME280;55932;48.702;8.884;2024-03-07T03:37:17;96500;;;1.7;72.5
68891;BME280;55932;48.702;8.884;2024-03-07T03:39:48;96500;;;1.7;72.5
68891;BME280;55932;48.702;8.884;2024-03-07T03:42:32;96490;;;1.8;72.5
68891;BME280;55932;48.702;8.884;2024-03-07T03:47:26;96490;;;1.9;72.5
68891;BME280;55932;48.702;8.884;2024-03-07T03:49:57;96480;;;1.9;72.5
68891;BME280;55932;48.702;8.884;2024-03-07T03:52:34;96480;;;1.9;72.5
68891;BME280;55932;48.702;8.884;2024-03-07T03:55:06;96480;;;1.9;72.5
68891;BME280;55932;48.702;8.884;2024-03-07T04:02:39;96480;;;1.9;72.5
68891;BME280;55932;48.702;8.884;2024-03-07T04:05:09;96480;;;1.8;72.5
68891;BME280;55932;48.702;8.884;2024-03-07T04:10:02;96480;;;1.8;72.5
68891;BME280;55932;48.702;8.884;2024-03-07T04:12:33;96480;;;1.8;72.5
68891;BME280;55932;48.702;8.884;2024-03-07T04:15:04;96470;;;1.7;72.5
68891;BME280;55932;48.702;8.884;2024-03-07T04:17:35;96480;;;1.6;72.5
68891;BME280;55932;48.702;8.884;2024-03-07T04:20:12;96480;;;1.6;72.5
68891;BME280;55932;48.702;8.884;2024-03-07T04:22:43;96470;;;1.5;72.5
68891;BME280;55932;48.702;8.884;2024-03-07T04:30:16;96470;;;1.4;72.5
68891;BME280;55932;48.702;8.884;2024-03-07T04:32:48;96470;;;1.4;73
68891;BME280;55932;48.702;8.884;2024-03-07T04:35:16;96470;;;1.3;72.5
68891;BME280;55932;48.702;8.884;2024-03-07T04:37:53;96470;;;1.3;72.5
68891;BME280;55932;48.702;8.884;2024-03-07T04:40:10;96470;;;1.3;72.5
68891;BME280;55932;48.702;8.884;2024-03-07T04:42:42;96470;;;1.4;73
68891;BME280;55932;48.702;8.884;2024-03-07T04:45:12;96470;;;1.5;72.5
68891;BME280;55932;48.702;8.884;2024-03-07T04:47:50;96470;;;1.6;72.5
68891;BME280;55932;48.702;8.884;2024-03-07T04:50:20;96470;;;1.7;72.5
68891;BME280;55932;48.702;8.884;2024-03-07T04:55:20;96480;;;1.7;72.5
68891;BME280;55932;48.702;8.884;2024-03-07T04:57:50;96470;;;1.7;72.5
68891;BME280;55932;48.702;8.884;2024-03-07T05:00:21;96470;;;1.7;72.5
68891;BME280;55932;48.702;8.884;2024-03-07T05:02:51;96470;;;1.5;72.5
68891;BME280;55932;48.702;8.884;2024-03-07T05:05:21;96470;;;1.4;73
68891;BME280;55932;48.702;8.884;2024-03-07T05:07:58;96470;;;1.5;72.5
68891;BME280;55932;48.702;8.884;2024-03-07T05:12:46;96470;;;1.4;72.5
68891;BME280;55932;48.702;8.884;2024-03-07T05:15:23;96470;;;1.3;72.5
68891;BME280;55932;48.702;8.884;2024-03-07T05:17:47;96470;;;1.3;72.5
68891;BME280;55932;48.702;8.884;2024-03-07T05:22:42;96470;;;1.1;72.5
68891;BME280;55932;48.702;8.884;2024-03-07T05:25:13;96470;;;1.1;72.5
68891;BME280;55932;48.702;8.884;2024-03-07T05:27:44;96470;;;1;72.5
68891;BME280;55932;48.702;8.884;2024-03-07T05:40:17;96470;;;0.8;73
68891;BME280;55932;48.702;8.884;2024-03-07T05:43:08;96460;;;0.7;73
68891;BME280;55932;48.702;8.884;2024-03-07T05:48:13;96470;;;0.7;73.5
68891;BME280;55932;48.702;8.884;2024-03-07T05:50:32;96460;;;0.6;73.5
68891;BME280;55932;48.702;8.884;2024-03-07T05:55:26;96460;;;0.6;73.5
68891;BME280;55932;48.702;8.884;2024-03-07T05:57:57;96460;;;0.6;73
68891;BME280;55932;48.702;8.884;2024-03-07T06:00:28;96460;;;0.6;73
68891;BME280;55932;48.702;8.884;2024-03-07T06:03:05;96460;;;0.6;73
68891;BME280;55932;48.702;8.884;2024-03-07T06:05:37;96460;;;0.5;73
68891;BME280;55932;48.702;8.884;2024-03-07T06:08:00;96460;;;0.6;73
68891;BME280;55932;48.702;8.884;2024-03-07T06:10:31;96460;;;0.5;73
68891;BME280;55932;48.702;8.884;2024-03-07T06:13:02;96470;;;0.5;73
68891;BME280;55932;48.702;8.884;2024-03-07T06:15:25;96460;;;0.5;73
68891;BME280;55932;48.702;8.884;2024-03-07T06:17:56;96460;;;0.5;73
68891;BME280;55932;48.702;8.884;2024-03-07T06:20:27;96460;;;0.5;73
68891;BME280;55932;48.702;8.884;2024-03-07T06:22:57;96460;;;0.5;73
68891;BME280;55932;48.702;8.884;2024-03-07T06:25:28;96460;;;0.4;73
68891;BME280;55932;48.702;8.884;2024-03-07T06:33:01;96450;;;0.5;73
68891;BME280;55932;48.702;8.884;2024-03-07T06:35:32;96450;;;0.6;73
68891;BME280;55932;48.702;8.884;2024-03-07T06:38:09;96450;;;0.7;73
68891;BME280;55932;48.702;8.884;2024-03-07T06:40:48;96450;;;0.7;73
68891;BME280;55932;48.702;8.884;2024-03-07T06:43:11;96450;;;0.8;73
68891;BME280;55932;48.702;8.884;2024-03-07T06:45:42;96450;;;0.8;73
68891;BME280;55932;48.702;8.884;2024-03-07T06:48:13;96460;;;1;72.5
68891;BME280;55932;48.702;8.884;2024-03-07T06:50:43;96460;;;1.3;72.5
68891;BME280;55932;48.702;8.884;2024-03-07T06:53:14;96460;;;1.9;72.5
68891;BME280;55932;48.702;8.884;2024-03-07T06:55:45;96460;;;2.2;73
68891;BME280;55932;48.702;8.884;2024-03-07T07:03:30;96460;;;3;73.5
68891;BME280;55932;48.702;8.884;2024-03-07T07:13:25;96460;;;3.6;72
68891;BME280;55932;48.702;8.884;2024-03-07T07:15:55;96460;;;3.7;72
68891;BME280;55932;48.702;8.884;2024-03-07T07:18:19;96460;;;3.6;71.5
68891;BME280;55932;48.702;8.884;2024-03-07T07:20:57;96460;;;3.5;71.5
68891;BME280;55932;48.702;8.884;2024-03-07T07:23:21;96450;;;3.5;71.5
68891;BME280;55932;48.702;8.884;2024-03-07T07:25:59;96450;;;3.5;71
68891;BME280;55932;48.702;8.884;2024-03-07T07:31:06;96450;;;3.2;71.5
68891;BME280;55932;48.702;8.884;2024-03-07T07:33:30;96450;;;3.3;71.5
68891;BME280;55932;48.702;8.884;2024-03-07T07:38:24;96450;;;3.1;71.5
68891;BME280;55932;48.702;8.884;2024-03-07T07:40:54;96440;;;2.9;71.5
68891;BME280;55932;48.702;8.884;2024-03-07T07:43:25;96440;;;2.9;71.5
68891;BME280;55932;48.702;8.884;2024-03-07T07:45:56;96440;;;3.1;72
68891;BME280;55932;48.702;8.884;2024-03-07T07:48:27;96440;;;3.3;71.5
68891;BME280;55932;48.702;8.884;2024-03-07T07:55:55;96430;;;3.9;71
68891;BME280;55932;48.702;8.884;2024-03-07T07:58:24;96440;;;4;71
68891;BME280;55932;48.702;8.884;2024-03-07T08:00:55;96430;;;4.2;71
68891;BME280;55932;48.702;8.884;2024-03-07T08:03:25;96430;;;3.7;71
68891;BME280;55932;48.702;8.884;2024-03-07T08:05:56;96430;;;3.3;71
68891;BME280;55932;48.702;8.884;2024-03-07T08:13:29;96430;;;3;72
68891;BME280;55932;48.702;8.884;2024-03-07T08:18:37;96420;;;3.3;72
68891;BME280;55932;48.702;8.884;2024-03-07T08:21:08;96420;;;3.3;72
68891;BME280;55932;48.702;8.884;2024-03-07T08:23:39;96420;;;3.5;71.5
68891;BME280;55932;48.702;8.884;2024-03-07T08:26:10;96430;;;3.6;71.5
68891;BME280;55932;48.702;8.884;2024-03-07T08:31:11;96430;;;3.9;71
68891;BME280;55932;48.702;8.884;2024-03-07T08:33:42;96430;;;4;71
68891;BME280;55932;48.702;8.884;2024-03-07T08:36:13;96420;;;4;71.5
68891;BME280;55932;48.702;8.884;2024-03-07T08:43:39;96420;;;4.6;71
68891;BME280;55932;48.702;8.884;2024-03-07T08:46:10;96410;;;4.7;71.5
68891;BME280;55932;48.702;8.884;2024-03-07T08:48:40;96420;;;5.1;70.5
68891;BME280;55932;48.702;8.884;2024-03-07T08:51:11;96400;;;4.8;70.5
68891;BME280;55932;48.702;8.884;2024-03-07T08:56:25;96400;;;4.4;72
68891;BME280;55932;48.702;8.884;2024-03-07T08:58:50;96400;;;4.8;71.5
68891;BME280;55932;48.702;8.884;2024-03-07T09:01:20;96400;;;5;71
68891;BME280;55932;48.702;8.884;2024-03-07T09:11:17;96400;;;4;71.5
68891;BME280;55932;48.702;8.884;2024-03-07T09:13:48;96400;;;4.1;71.5
68891;BME280;55932;48.702;8.884;2024-03-07T09:16:21;96410;;;4.1;71.5
68891;BME280;55932;48.702;8.884;2024-03-07T09:21:27;96400;;;4.2;71.5
68891;BME280;55932;48.702;8.884;2024-03-07T09:23:57;96400;;;4;71.5
68891;BME280;55932;48.702;8.884;2024-03-07T09:28:52;96400;;;3.9;71.5
68891;BME280;55932;48.702;8.884;2024-03-07T09:31:23;96400;;;4;72
68891;BME280;55932;48.702;8.884;2024-03-07T09:38:55;96390;;;4.1;71
68891;BME280;55932;48.702;8.884;2024-03-07T09:43:57;96390;;;4.3;71
68891;BME280;55932;48.702;8.884;2024-03-07T09:49:24;96390;;;4.6;71
68891;BME280;55932;48.702;8.884;2024-03-07T09:51:42;96390;;;4.7;71
68891;BME280;55932;48.702;8.884;2024-03-07T09:56:36;96380;;;4.8;70.5
68891;BME280;55932;48.702;8.884;2024-03-07T09:59:08;96390;;;4.9;70.5
68891;BME280;55932;48.702;8.884;2024-03-07T10:01:38;96380;;;5.2;70.5
68891;BME280;55932;48.702;8.884;2024-03-07T10:04:10;96380;;;5.2;70.5
68891;BME280;55932;48.702;8.884;2024-03-07T10:09:03;96390;;;5.2;71
68891;BME280;55932;48.702;8.884;2024-03-07T10:11:34;96390;;;5.2;71
68891;BME280;55932;48.702;8.884;2024-03-07T10:14:05;96390;;;5.2;71
68891;BME280;55932;48.702;8.884;2024-03-07T10:16:36;96390;;;5.3;70.5
68891;BME280;55932;48.702;8.884;2024-03-07T10:19:06;96380;;;5.2;71.5
68891;BME280;55932;48.702;8.884;2024-03-07T10:21:43;96390;;;5.2;71
68891;BME280;55932;48.702;8.884;2024-03-07T10:24:14;96380;;;5;71.5
68891;BME280;55932;48.702;8.884;2024-03-07T10:29:09;96380;;;5.2;71
68891;BME280;55932;48.702;8.884;2024-03-07T10:39:13;96380;;;5;71
68891;BME280;55932;48.702;8.884;2024-03-07T10:41:44;96380;;;5.1;71
68891;BME280;55932;48.702;8.884;2024-03-07T10:44:29;96380;;;5.2;71.5
68891;BME280;55932;48.702;8.884;2024-03-07T10:46:45;96380;;;5.5;71
68891;BME280;55932;48.702;8.884;2024-03-07T10:49:16;96380;;;5.5;71.5
68891;BME280;55932;48.702;8.884;2024-03-07T10:51:58;96370;;;5.7;71
68891;BME280;55932;48.702;8.884;2024-03-07T10:54:29;96380;;;5.7;71
68891;BME280;55932;48.702;8.884;2024-03-07T10:57:00;96380;;;5.8;71
68891;BME280;55932;48.702;8.884;2024-03-07T10:59:26;96370;;;5.9;71
68891;BME280;55932;48.702;8.884;2024-03-07T11:02:13;96370;;;6.1;71
68891;BME280;55932;48.702;8.884;2024-03-07T11:09:49;96360;;;6.3;70.5
68891;BME280;55932;48.702;8.884;2024-03-07T11:12:06;96360;;;6.2;71.5
68891;BME280;55932;48.702;8.884;2024-03-07T11:17:01;96350;;;6.5;70.5
68891;BME280;55932;48.702;8.884;2024-03-07T11:19:32;96350;;;6.4;70.5
68891;BME280;55932;48.702;8.884;2024-03-07T11:22:02;96350;;;6.3;70.5
68891;BME280;55932;48.702;8.884;2024-03-07T11:24:26;96350;;;6.3;70.5
68891;BME280;55932;48.702;8.884;2024-03-07T11:31:58;96350;;;6.7;70
68891;BME280;55932;48.702;8.884;2024-03-07T11:34:29;96340;;;6.8;70.5
68891;BME280;55932;48.702;8.884;2024-03-07T11:37:01;96340;;;6.9;70
68891;BME280;55932;48.702;8.884;2024-03-07T11:44:38;96330;;;6.9;70
68891;BME280;55932;48.702;8.884;2024-03-07T11:47:09;96330;;;6.7;70.5
68891;BME280;55932;48.702;8.884;2024-03-07T11:49:40;96320;;;6.8;70.5
68891;BME280;55932;48.702;8.884;2024-03-07T11:52:11;96320;;;7;70
68891;BME280;55932;48.702;8.884;2024-03-07T11:54:42;96320;;;7;70.5
68891;BME280;55932;48.702;8.884;2024-03-07T11:57:15;96310;;;7.6;70
68891;BME280;55932;48.702;8.884;2024-03-07T11:59:44;96310;;;9.1;70
68891;BME280;55932;48.702;8.884;2024-03-07T12:02:22;96300;;;10.4;69
68891;BME280;55932;48.702;8.884;2024-03-07T12:04:52;96300;;;10.7;69
68891;BME280;55932;48.702;8.884;2024-03-07T12:07:17;96300;;;10.7;68.5
68891;BME280;55932;48.702;8.884;2024-03-07T12:09:48;96300;;;10.6;68.5
68891;BME280;55932;48.702;8.884;2024-03-07T12:12:19;96290;;;10;69
68891;BME280;55932;48.702;8.884;2024-03-07T12:14:50;96300;;;9.4;69.5
68891;BME280;55932;48.702;8.884;2024-03-07T12:19:56;96290;;;8.4;70
68891;BME280;55932;48.702;8.884;2024-03-07T12:24:46;96290;;;7.5;71
68891;BME280;55932;48.702;8.884;2024-03-07T12:27:22;96300;;;7.4;71
68891;BME280;55932;48.702;8.884;2024-03-07T12:29:47;96290;;;7.4;71
68891;BME280;55932;48.702;8.884;2024-03-07T12:32:19;96290;;;7.4;71
68891;BME280;55932;48.702;8.884;2024-03-07T12:34:49;96290;;;7.6;70.5
68891;BME280;55932;48.702;8.884;2024-03-07T12:37:19;96290;;;7.9;70.5
68891;BME280;55932;48.702;8.884;2024-03-07T12:39:50;96290;;;7.9;70.5
68891;BME280;55932;48.702;8.884;2024-03-07T12:42:28;96290;;;7.8;70.5
68891;BME280;55932;48.702;8.884;2024-03-07T12:47:36;96290;;;7.6;71
68891;BME280;55932;48.702;8.884;2024-03-07T12:52:32;96290;;;7.2;71
68891;BME280;55932;48.702;8.884;2024-03-07T12:57:40;96290;;;7.2;71
68891;BME280;55932;48.702;8.884;2024-03-07T13:00:11;96290;;;7.3;71
68891;BME280;55932;48.702;8.884;2024-03-07T13:05:04;96280;;;7.4;70.5
68891;BME280;55932;48.702;8.884;2024-03-07T13:07:35;96280;;;7.3;71
68891;BME280;55932;48.702;8.884;2024-03-07T13:10:06;96280;;;7.6;70.5
68891;BME280;55932;48.702;8.884;2024-03-07T13:12:43;96280;;;8;70.5
68891;BME280;55932;48.702;8.884;2024-03-07T13:17:38;96270;;;8.3;70.5
68891;BME280;55932;48.702;8.884;2024-03-07T13:20:11;96270;;;9;70
68891;BME280;55932;48.702;8.884;2024-03-07T13:22:41;96260;;;10.2;68.5
68891;BME280;55932;48.702;8.884;2024-03-07T13:27:44;96260;;;9.2;70
68891;BME280;55932;48.702;8.884;2024-03-07T13:30:13;96270;;;9.2;69.5
68891;BME280;55932;48.702;8.884;2024-03-07T13:32:44;96260;;;8.9;69.5
68891;BME280;55932;48.702;8.884;2024-03-07T13:35:19;96260;;;8.6;70
68891;BME280;55932;48.702;8.884;2024-03-07T13:37:53;96260;;;8.4;71
68891;BME280;55932;48.702;8.884;2024-03-07T13:42:49;96260;;;8.4;70.5
68891;BME280;55932;48.702;8.884;2024-03-07T13:45:20;96260;;;8.1;70.5
68891;BME280;55932;48.702;8.884;2024-03-07T13:47:50;96250;;;7.9;71
68891;BME280;55932;48.702;8.884;2024-03-07T13:50:22;96260;;;7.8;71
68891;BME280;55932;48.702;8.884;2024-03-07T13:52:52;96260;;;7.8;71
68891;BME280;55932;48.702;8.884;2024-03-07T13:55:23;96250;;;7.8;71
68891;BME280;55932;48.702;8.884;2024-03-07T13:58:01;96250;;;7.7;71
68891;BME280;55932;48.702;8.884;2024-03-07T14:00:42;96250;;;7.5;71
68891;BME280;55932;48.702;8.884;2024-03-07T14:08:19;96250;;;6.9;71.5
68891;BME280;55932;48.702;8.884;2024-03-07T14:30:36;96230;;;7;71
68891;BME280;55932;48.702;8.884;2024-03-07T14:33:06;96230;;;7;71
68891;BME280;55932;48.702;8.884;2024-03-07T14:36:13;96230;;;7;71
68891;BME280;55932;48.702;8.884;2024-03-07T14:38:34;96230;;;7.1;71
68891;BME280;55932;48.702;8.884;2024-03-07T14:43:09;96220;;;7.2;71
68891;BME280;55932;48.702;8.884;2024-03-07T14:48:17;96220;;;7.3;71
68891;BME280;55932;48.702;8.884;2024-03-07T14:50:47;96220;;;7.1;71
68891;BME280;55932;48.702;8.884;2024-03-07T14:53:12;96220;;;7.1;71
68891;BME280;55932;48.702;8.884;2024-03-07T14:55:42;96210;;;7.1;71
68891;BME280;55932;48.702;8.884;2024-03-07T14:58:13;96210;;;7.2;71
68891;BME280;55932;48.702;8.884;2024-03-07T15:00:44;96210;;;7.3;71
68891;BME280;55932;48.702;8.884;2024-03-07T15:03:15;96210;;;7.1;71
68891;BME280;55932;48.702;8.884;2024-03-07T15:05:52;96210;;;6.9;71
68891;BME280;55932;48.702;8.884;2024-03-07T15:08:23;96210;;;6.7;71.5
68891;BME280;55932;48.702;8.884;2024-03-07T15:10:49;96210;;;6.8;71.5
68891;BME280;55932;48.702;8.884;2024-03-07T15:13:19;96210;;;6.7;71.5
68891;BME280;55932;48.702;8.884;2024-03-07T15:15:49;96210;;;6.6;71.5
68891;BME280;55932;48.702;8.884;2024-03-07T15:18:20;96210;;;6.5;71.5
68891;BME280;55932;48.702;8.884;2024-03-07T15:20:51;96210;;;6.4;71.5
68891;BME280;55932;48.702;8.884;2024-03-07T15:23:29;96210;;;6.3;71.5
68891;BME280;55932;48.702;8.884;2024-03-07T15:26:00;96210;;;6.3;71.5
68891;BME280;55932;48.702;8.884;2024-03-07T15:33:33;96200;;;6.7;71.5
68891;BME280;55932;48.702;8.884;2024-03-07T15:36:02;96200;;;6.7;71.5
68891;BME280;55932;48.702;8.884;2024-03-07T15:41:00;96200;;;6.8;71.5
68891;BME280;55932;48.702;8.884;2024-03-07T15:43:28;96200;;;6.8;71
68891;BME280;55932;48.702;8.884;2024-03-07T15:45:58;96200;;;6.7;71.5
68891;BME280;55932;48.702;8.884;2024-03-07T15:48:45;96200;;;6.7;71.5
68891;BME280;55932;48.702;8.884;2024-03-07T15:58:39;96190;;;6.4;72
68891;BME280;55932;48.702;8.884;2024-03-07T16:01:09;96190;;;6.4;71.5
68891;BME280;55932;48.702;8.884;2024-03-07T16:03:39;96190;;;6.4;71.5
68891;BME280;55932;48.702;8.884;2024-03-07T16:08:39;96190;;;6.4;72
68891;BME280;55932;48.702;8.884;2024-03-07T16:11:04;96180;;;6.4;71.5
68891;BME280;55932;48.702;8.884;2024-03-07T16:13:35;96190;;;6.4;71.5
68891;BME280;55932;48.702;8.884;2024-03-07T16:16:06;96180;;;6.4;71.5
68891;BME280;55932;48.702;8.884;2024-03-07T16:18:36;96180;;;6.4;71.5
68891;BME280;55932;48.702;8.884;2024-03-07T16:21:14;96180;;;6.4;71.5
68891;BME280;55932;48.702;8.884;2024-03-07T16:23:38;96180;;;6.4;71.5
68891;BME280;55932;48.702;8.884;2024-03-07T16:26:10;96180;;;6.4;71.5
68891;BME280;55932;48.702;8.884;2024-03-07T16:28:40;96180;;;6.3;71.5
68891;BME280;55932;48.702;8.884;2024-03-07T16:31:11;96170;;;6.3;71.5
68891;BME280;55932;48.702;8.884;2024-03-07T16:33:49;96180;;;6.3;71.5
68891;BME280;55932;48.702;8.884;2024-03-07T16:38:45;96170;;;6.2;72
68891;BME280;55932;48.702;8.884;2024-03-07T16:41:15;96170;;;6.2;72
68891;BME280;55932;48.702;8.884;2024-03-07T16:43:46;96170;;;6.2;72
68891;BME280;55932;48.702;8.884;2024-03-07T16:46:17;96170;;;6.2;72
68891;BME280;55932;48.702;8.884;2024-03-07T16:48:48;96170;;;6.2;72
68891;BME280;55932;48.702;8.884;2024-03-07T16:51:19;96170;;;6.2;72
68891;BME280;55932;48.702;8.884;2024-03-07T16:53:50;96170;;;6.1;72
68891;BME280;55932;48.702;8.884;2024-03-07T16:56:21;96170;;;6.1;72
68891;BME280;55932;48.702;8.884;2024-03-07T16:58:52;96170;;;6.1;72
68891;BME280;55932;48.702;8.884;2024-03-07T17:01:23;96170;;;6;72
68891;BME280;55932;48.702;8.884;2024-03-07T17:04:07;96180;;;6;72
68891;BME280;55932;48.702;8.884;2024-03-07T17:06:38;96170;;;6;72
68891;BME280;55932;48.702;8.884;2024-03-07T17:11:24;96170;;;5.9;72
68891;BME280;55932;48.702;8.884;2024-03-07T17:13:56;96170;;;5.9;72
68891;BME280;55932;48.702;8.884;2024-03-07T17:23:52;96170;;;5.7;72
68891;BME280;55932;48.702;8.884;2024-03-07T17:26:22;96170;;;5.8;72
68891;BME280;55932;48.702;8.884;2024-03-07T17:28:53;96160;;;5.8;72
68891;BME280;55932;48.702;8.884;2024-03-07T17:31:24;96170;;;5.8;72
68891;BME280;55932;48.702;8.884;2024-03-07T17:36:25;96160;;;5.6;72
68891;BME280;55932;48.702;8.884;2024-03-07T17:41:40;96170;;;5.6;72
68891;BME280;55932;48.702;8.884;2024-03-07T17:44:10;96170;;;5.6;72
68891;BME280;55932;48.702;8.884;2024-03-07T17:46:40;96170;;;5.5;72
68891;BME280;55932;48.702;8.884;2024-03-07T17:49:10;96170;;;5.5;72.5
68891;BME280;55932;48.702;8.884;2024-03-07T17:51:40;96170;;;5.5;72
68891;BME280;55932;48.702;8.884;2024-03-07T17:54:11;96180;;;5.6;72
68891;BME280;55932;48.702;8.884;2024-03-07T17:56:36;96180;;;5.5;72
68891;BME280;55932;48.702;8.884;2024-03-07T17:59:07;96180;;;5.5;72
68891;BME280;55932;48.702;8.884;2024-03-07T18:01:31;96180;;;5.5;72.5
68891;BME280;55932;48.702;8.884;2024-03-07T18:04:01;96180;;;5.5;72.5
68891;BME280;55932;48.702;8.884;2024-03-07T18:06:32;96180;;;5.6;72
68891;BME280;55932;48.702;8.884;2024-03-07T18:14:04;96180;;;5.5;72.5
68891;BME280;55932;48.702;8.884;2024-03-07T18:21:36;96180;;;5.4;72.5
68891;BME280;55932;48.702;8.884;2024-03-07T18:24:07;96170;;;5.4;72.5
68891;BME280;55932;48.702;8.884;2024-03-07T18:26:38;96170;;;5.4;72.5
68891;BME280;55932;48.702;8.884;2024-03-07T18:31:52;96170;;;5.3;72.5
68891;BME280;55932;48.702;8.884;2024-03-07T18:34:22;96160;;;5.3;72.5
68891;BME280;55932;48.702;8.884;2024-03-07T18:36:45;96160;;;5.2;72.5
68891;BME280;55932;48.702;8.884;2024-03-07T18:39:16;96160;;;5.2;72.5
68891;BME280;55932;48.702;8.884;2024-03-07T18:41:51;96160;;;5.2;72.5
68891;BME280;55932;48.702;8.884;2024-03-07T18:44:19;96160;;;5.2;72.5
68891;BME280;55932;48.702;8.884;2024-03-07T18:46:56;96160;;;5.1;72.5
68891;BME280;55932;48.702;8.884;2024-03-07T18:49:27;96150;;;5.1;72.5
68891;BME280;55932;48.702;8.884;2024-03-07T18:51:51;96150;;;5.1;72.5
68891;BME280;55932;48.702;8.884;2024-03-07T18:54:22;96150;;;5.1;72.5
68891;BME280;55932;48.702;8.884;2024-03-07T18:56:53;96150;;;5;72.5
68891;BME280;55932;48.702;8.884;2024-03-07T18:59:24;96150;;;5;72.5
68891;BME280;55932;48.702;8.884;2024-03-07T19:04:25;96150;;;5;72.5
68891;BME280;55932;48.702;8.884;2024-03-07T19:06:56;96140;;;5;72.5
68891;BME280;55932;48.702;8.884;2024-03-07T19:09:34;96140;;;5;72.5
68891;BME280;55932;48.702;8.884;2024-03-07T19:11:59;96140;;;5;72.5
68891;BME280;55932;48.702;8.884;2024-03-07T19:14:35;96140;;;5;72.5
68891;BME280;55932;48.702;8.884;2024-03-07T19:17:06;96130;;;4.9;72.5
68891;BME280;55932;48.702;8.884;2024-03-07T19:22:00;96130;;;4.8;72.5
68891;BME280;55932;48.702;8.884;2024-03-07T19:24:31;96130;;;4.8;72.5
68891;BME280;55932;48.702;8.884;2024-03-07T19:27:02;96130;;;4.9;72.5
68891;BME280;55932;48.702;8.884;2024-03-07T19:29:33;96130;;;4.9;72.5
68891;BME280;55932;48.702;8.884;2024-03-07T19:34:41;96120;;;4.9;72.5
68891;BME280;55932;48.702;8.884;2024-03-07T19:37:11;96130;;;4.9;72.5
68891;BME280;55932;48.702;8.884;2024-03-07T19:39:34;96130;;;4.9;72.5
68891;BME280;55932;48.702;8.884;2024-03-07T19:42:12;96130;;;4.9;72.5
68891;BME280;55932;48.702;8.884;2024-03-07T19:44:38;96130;;;4.9;72.5
68891;BME280;55932;48.702;8.884;2024-03-07T19:47:07;96130;;;4.9;72.5
68891;BME280;55932;48.702;8.884;2024-03-07T19:49:39;96120;;;4.9;72.5